Time;durP1;ratioP1;P1;durP2;ratioP2;P2;SDS_P1;SDS_P2;PMS_P1;PMS_P2;Temp;Humidity;BMP_temperature;BMP_pressure;BME280_temperature;BME280_humidity;BME280_pressure;Samples;Min_cycle;Max_cycle;Signal;HPM_P1;HPM_P2
2021/05/11 00:01:45;;;;;;;23.50;21.80;;;13.70;90.10;;;;;;5005457;28;20483;-73
2021/05/11 00:04:12;;;;;;;24.70;23.20;;;13.70;90.10;;;;;;5007030;28;20496;-74
2021/05/11 00:06:38;;;;;;;24.97;23.37;;;13.70;90.30;;;;;;5004112;28;20463;-74
2021/05/11 00:09:06;;;;;;;24.07;22.57;;;13.80;90.20;;;;;;5007217;28;20487;-75
2021/05/11 00:11:34;;;;;;;24.50;23.00;;;13.80;90.10;;;;;;5005128;28;20993;-75
2021/05/11 00:14:01;;;;;;;24.57;23.07;;;13.90;89.80;;;;;;5002965;28;20497;-79
2021/05/11 00:16:27;;;;;;;25.33;23.63;;;14.00;89.10;;;;;;5004616;28;20453;-76
2021/05/11 00:18:54;;;;;;;24.53;22.97;;;14.10;88.80;;;;;;5005932;28;21104;-78
2021/05/11 00:21:21;;;;;;;25.43;23.80;;;14.00;88.60;;;;;;5005506;28;20506;-75
2021/05/11 00:23:47;;;;;;;26.40;24.23;;;14.00;89.00;;;;;;5006273;28;20495;-76
2021/05/11 00:26:14;;;;;;;27.03;24.13;;;14.00;88.80;;;;;;5006385;28;20465;-80
2021/05/11 00:28:41;;;;;;;23.80;22.20;;;14.10;88.40;;;;;;5005253;28;20468;-75
2021/05/11 00:31:07;;;;;;;23.70;22.00;;;14.10;88.20;;;;;;5004528;28;20516;-77
2021/05/11 00:33:34;;;;;;;21.80;20.60;;;14.00;88.40;;;;;;5004382;28;21061;-75
2021/05/11 00:36:00;;;;;;;24.50;22.57;;;14.00;88.30;;;;;;5002636;28;20465;-76
2021/05/11 00:38:26;;;;;;;22.87;21.40;;;14.00;88.50;;;;;;5005413;28;20460;-76
2021/05/11 00:40:53;;;;;;;23.27;21.87;;;14.10;88.20;;;;;;4999061;28;20487;-73
2021/05/11 00:43:19;;;;;;;25.00;23.20;;;14.10;88.20;;;;;;5005585;28;20471;-73
2021/05/11 00:45:46;;;;;;;23.50;22.00;;;14.00;88.40;;;;;;5004095;28;20499;-73
2021/05/11 00:48:13;;;;;;;23.30;21.80;;;14.00;88.70;;;;;;5006463;28;21187;-74
2021/05/11 00:50:40;;;;;;;24.20;22.50;;;14.00;88.50;;;;;;5004127;28;20543;-74
2021/05/11 00:53:06;;;;;;;24.60;22.93;;;14.00;88.40;;;;;;5005362;28;20476;-74
2021/05/11 00:55:33;;;;;;;22.60;21.30;;;14.00;88.60;;;;;;5004708;28;20480;-73
2021/05/11 00:58:00;;;;;;;24.27;22.60;;;13.90;88.60;;;;;;5004914;28;20500;-74
2021/05/11 01:00:27;;;;;;;25.03;22.93;;;13.80;89.30;;;;;;5004362;28;20456;-75
2021/05/11 01:02:54;;;;;;;25.20;23.53;;;13.80;89.10;;;;;;5006501;28;20466;-74
2021/05/11 01:05:21;;;;;;;22.90;21.53;;;13.80;89.30;;;;;;5003482;28;20457;-74
2021/05/11 01:07:47;;;;;;;25.67;23.77;;;13.90;88.90;;;;;;5002733;28;20464;-74
2021/05/11 01:10:14;;;;;;;24.30;22.73;;;13.90;89.00;;;;;;5003621;28;20512;-74
2021/05/11 01:12:40;;;;;;;25.00;23.40;;;14.00;88.70;;;;;;5003039;28;20473;-73
2021/05/11 01:15:08;;;;;;;25.20;23.60;;;14.00;88.60;;;;;;5002826;28;20485;-74
2021/05/11 01:17:36;;;;;;;25.60;24.00;;;14.00;88.40;;;;;;5004977;28;20504;-74
2021/05/11 01:20:06;;;;;;;23.90;22.43;;;13.90;88.50;;;;;;5003984;28;20472;-74
2021/05/11 01:22:49;;;;;;;24.83;23.23;;;13.90;88.90;;;;;;5005398;28;20472;-74
2021/05/11 01:25:19;;;;;;;37.47;26.63;;;13.70;89.40;;;;;;5001864;28;20586;-74
2021/05/11 01:28:01;;;;;;;31.50;25.00;;;13.70;90.20;;;;;;5005437;28;20461;-74
2021/05/11 01:44:48;;;;;;;25.17;23.47;;;13.50;91.10;;;;;;5004402;28;20479;-74
2021/05/11 01:50:02;;;;;;;28.37;26.20;;;13.40;91.30;;;;;;4984562;28;20489;-74
2021/05/11 01:52:38;;;;;;;27.70;25.60;;;13.50;91.30;;;;;;5002731;28;20477;-74
2021/05/11 01:55:20;;;;;;;27.97;25.90;;;13.50;91.10;;;;;;4999266;28;20570;-74
2021/05/11 01:58:18;;;;;;;28.40;26.17;;;13.60;91.10;;;;;;5001548;28;20840;-74
2021/05/11 02:22:45;;;;;;;24.60;22.80;;;13.40;91.50;;;;;;5008298;28;20514;-74
2021/05/11 02:25:13;;;;;;;24.77;23.13;;;13.60;91.20;;;;;;5007803;28;20611;-75
2021/05/11 02:27:41;;;;;;;23.17;21.53;;;13.70;90.70;;;;;;5008389;28;20465;-73
2021/05/11 02:30:09;;;;;;;23.60;21.80;;;13.70;90.50;;;;;;5008200;28;20463;-74
2021/05/11 02:32:36;;;;;;;23.80;22.10;;;13.80;89.80;;;;;;5006327;28;20484;-75
2021/05/11 02:35:03;;;;;;;23.83;22.27;;;13.80;89.70;;;;;;5008405;28;20547;-74
2021/05/11 02:37:29;;;;;;;22.33;20.70;;;13.70;89.70;;;;;;5004185;28;20534;-75
2021/05/11 02:39:56;;;;;;;24.10;22.50;;;13.70;90.20;;;;;;5006638;28;20460;-74
2021/05/11 02:42:22;;;;;;;24.37;22.60;;;13.70;89.80;;;;;;5010589;28;20815;-76
2021/05/11 02:44:51;;;;;;;24.77;22.97;;;13.80;89.50;;;;;;5007751;28;20457;-75
2021/05/11 02:47:17;;;;;;;25.83;23.60;;;13.80;89.20;;;;;;5010670;28;20464;-73
2021/05/11 02:49:44;;;;;;;326.53;45.40;;;13.80;89.40;;;;;;5007959;28;21007;-73
2021/05/11 02:52:11;;;;;;;40.80;26.03;;;13.80;89.50;;;;;;5008197;28;21016;-78
2021/05/11 02:54:38;;;;;;;34.67;25.20;;;13.80;89.60;;;;;;5001320;28;20895;-74
2021/05/11 02:57:05;;;;;;;25.70;23.33;;;13.80;89.40;;;;;;5010596;28;20472;-74
2021/05/11 02:59:32;;;;;;;25.57;23.63;;;13.70;89.60;;;;;;5009745;28;20564;-74
2021/05/11 03:02:00;;;;;;;84.43;32.33;;;13.70;89.80;;;;;;5012084;28;20915;-73
2021/05/11 03:04:26;;;;;;;25.37;23.13;;;13.70;89.90;;;;;;5006390;28;20515;-74
2021/05/11 03:06:57;;;;;;;24.10;22.50;;;13.90;89.50;;;;;;5006229;28;20460;-80
2021/05/11 03:09:23;;;;;;;25.20;23.30;;;14.00;88.90;;;;;;5007915;28;20460;-79
2021/05/11 03:11:50;;;;;;;25.07;23.37;;;13.90;88.60;;;;;;5007688;28;20534;-76
2021/05/11 03:14:16;;;;;;;24.47;22.77;;;13.90;88.80;;;;;;5004035;28;20916;-80
2021/05/11 03:16:43;;;;;;;26.70;25.00;;;13.80;88.80;;;;;;5009006;28;20519;-78
2021/05/11 03:19:10;;;;;;;24.07;22.57;;;13.90;88.80;;;;;;5008646;28;20460;-76
2021/05/11 03:21:37;;;;;;;24.47;22.77;;;13.90;88.60;;;;;;5009985;28;20507;-76
2021/05/11 03:24:05;;;;;;;24.70;22.90;;;13.90;88.40;;;;;;5005959;28;20518;-76
2021/05/11 03:26:32;;;;;;;24.00;22.50;;;13.90;88.60;;;;;;5007103;28;20472;-76
2021/05/11 03:28:58;;;;;;;26.07;24.37;;;13.80;88.60;;;;;;5007677;28;20467;-75
2021/05/11 03:31:25;;;;;;;24.07;22.57;;;13.80;88.60;;;;;;5001853;28;20571;-77
2021/05/11 03:33:51;;;;;;;25.70;24.00;;;13.90;88.50;;;;;;5006195;28;20464;-77
2021/05/11 03:36:18;;;;;;;26.17;24.10;;;13.80;88.80;;;;;;5006090;28;20556;-74
2021/05/11 03:38:47;;;;;;;24.30;22.70;;;13.70;88.90;;;;;;5003343;28;20477;-74
2021/05/11 03:41:15;;;;;;;24.03;22.63;;;13.80;88.80;;;;;;5005432;28;20546;-76
2021/05/11 03:43:49;;;;;;;25.73;23.93;;;13.80;88.80;;;;;;5005996;28;20485;-74
2021/05/11 03:46:16;;;;;;;24.93;23.33;;;13.90;88.70;;;;;;5008733;28;20464;-74
2021/05/11 03:48:42;;;;;;;27.60;25.70;;;13.80;89.10;;;;;;5009598;28;21109;-74
2021/05/11 03:51:09;;;;;;;24.70;22.90;;;13.80;88.70;;;;;;5006711;28;20469;-75
2021/05/11 03:53:36;;;;;;;26.70;24.40;;;13.80;88.80;;;;;;5006174;28;20556;-74
2021/05/11 03:56:03;;;;;;;32.63;30.30;;;13.80;88.80;;;;;;5002759;28;20473;-76
2021/05/11 03:58:30;;;;;;;27.77;25.67;;;13.70;89.30;;;;;;5007368;28;20460;-76
2021/05/11 04:00:56;;;;;;;29.60;27.00;;;13.70;89.50;;;;;;5003053;28;20482;-79
2021/05/11 04:03:23;;;;;;;27.17;24.90;;;13.80;89.10;;;;;;5005168;28;20471;-79
2021/05/11 04:05:51;;;;;;;30.23;27.83;;;13.80;89.10;;;;;;5003450;28;20480;-78
2021/05/11 04:08:32;;;;;;;31.20;28.07;;;13.70;89.50;;;;;;5006903;28;20457;-79
2021/05/11 04:11:07;;;;;;;30.50;28.00;;;13.60;90.20;;;;;;5006571;28;20488;-79
2021/05/11 04:16:22;;;;;;;30.13;27.50;;;13.70;90.20;;;;;;4998573;28;20547;-75
2021/05/11 04:18:49;;;;;;;32.63;29.83;;;13.60;90.10;;;;;;5010046;28;20457;-74
2021/05/11 04:21:16;;;;;;;29.97;27.30;;;13.70;90.10;;;;;;5006890;28;20481;-76
2021/05/11 04:23:43;;;;;;;30.70;27.97;;;13.70;90.20;;;;;;5011162;28;20461;-75
2021/05/11 04:26:11;;;;;;;32.50;29.57;;;13.70;90.30;;;;;;5004458;28;20566;-74
2021/05/11 04:28:37;;;;;;;37.17;33.77;;;13.70;90.10;;;;;;5006236;28;20580;-73
2021/05/11 04:31:04;;;;;;;47.63;33.77;;;13.80;89.70;;;;;;5004423;28;21040;-73
2021/05/11 04:33:31;;;;;;;33.80;30.20;;;14.00;89.30;;;;;;5004559;28;20453;-75
2021/05/11 04:35:57;;;;;;;32.43;29.77;;;14.00;88.90;;;;;;5006558;28;21004;-76
2021/05/11 04:38:24;;;;;;;34.63;31.40;;;14.00;89.10;;;;;;5006103;28;20499;-77
2021/05/11 04:40:50;;;;;;;33.50;30.47;;;13.80;89.40;;;;;;5006405;28;21085;-78
2021/05/11 04:43:18;;;;;;;34.13;31.13;;;13.70;90.60;;;;;;5005324;28;20492;-75
2021/05/11 04:45:46;;;;;;;34.63;31.53;;;13.70;90.30;;;;;;5005647;28;20468;-74
2021/05/11 04:48:12;;;;;;;32.47;29.53;;;13.70;90.50;;;;;;5006176;28;20560;-77
2021/05/11 04:50:39;;;;;;;33.83;30.93;;;13.70;90.30;;;;;;5006501;28;20591;-76
2021/05/11 04:53:05;;;;;;;33.57;30.57;;;13.80;90.20;;;;;;5002870;28;20975;-76
2021/05/11 04:55:33;;;;;;;32.70;29.60;;;13.90;89.60;;;;;;5002539;28;20481;-78
2021/05/11 04:58:00;;;;;;;31.23;28.43;;;13.90;89.50;;;;;;5004497;28;21021;-74
2021/05/11 05:00:27;;;;;;;31.37;28.40;;;13.70;90.00;;;;;;5001364;28;20863;-75
2021/05/11 05:02:54;;;;;;;32.67;29.57;;;13.50;91.00;;;;;;5003800;28;20471;-74
2021/05/11 05:05:20;;;;;;;29.70;27.20;;;13.50;91.80;;;;;;5003042;28;20500;-74
2021/05/11 05:07:47;;;;;;;33.67;30.43;;;13.60;91.30;;;;;;5004530;28;20468;-74
2021/05/11 05:10:14;;;;;;;32.30;29.60;;;13.80;90.30;;;;;;5003299;28;21180;-75
2021/05/11 05:12:45;;;;;;;33.30;30.17;;;13.80;90.40;;;;;;5004403;28;20221;-75
2021/05/11 05:15:13;;;;;;;32.13;29.33;;;13.90;89.60;;;;;;5002693;28;20895;-74
2021/05/11 05:17:40;;;;;;;30.63;28.13;;;13.90;89.40;;;;;;5003796;28;20457;-73
2021/05/11 05:20:08;;;;;;;35.30;32.60;;;13.90;89.40;;;;;;5003777;28;20464;-74
2021/05/11 05:22:35;;;;;;;32.87;30.17;;;13.80;89.70;;;;;;5003698;28;20497;-75
2021/05/11 05:25:10;;;;;;;31.43;28.73;;;13.80;90.10;;;;;;5003180;28;20680;-75
2021/05/11 05:27:44;;;;;;;32.23;29.60;;;13.70;90.40;;;;;;5004398;28;20498;-75
2021/05/11 05:30:11;;;;;;;31.80;29.20;;;13.70;90.50;;;;;;5004265;28;20488;-77
2021/05/11 05:32:38;;;;;;;34.50;31.40;;;13.80;90.20;;;;;;5006305;28;21393;-76
2021/05/11 05:35:06;;;;;;;32.33;29.63;;;13.90;89.50;;;;;;5005182;28;20491;-76
2021/05/11 05:37:33;;;;;;;31.53;28.83;;;14.00;89.80;;;;;;5000183;28;20519;-77
2021/05/11 05:40:02;;;;;;;31.43;28.90;;;14.10;89.30;;;;;;5004517;28;20690;-76
2021/05/11 05:42:28;;;;;;;30.20;27.60;;;14.30;88.40;;;;;;5005016;28;21005;-76
2021/05/11 05:44:55;;;;;;;29.90;27.57;;;14.30;87.70;;;;;;5004450;28;20464;-79
2021/05/11 05:47:21;;;;;;;31.30;28.70;;;14.20;88.20;;;;;;5010052;28;20510;-78
2021/05/11 05:49:50;;;;;;;29.40;27.00;;;14.30;87.80;;;;;;5002097;28;20906;-77
2021/05/11 05:52:20;;;;;;;28.93;26.83;;;14.30;87.60;;;;;;5001519;28;20575;-79
2021/05/11 05:54:47;;;;;;;30.07;27.77;;;14.40;86.80;;;;;;4997306;28;20484;-73
2021/05/11 05:57:13;;;;;;;30.33;28.00;;;14.30;86.90;;;;;;5002965;28;20448;-73
2021/05/11 05:59:42;;;;;;;34.07;31.70;;;14.10;88.00;;;;;;5003501;28;20457;-77
2021/05/11 06:02:08;;;;;;;28.67;26.60;;;14.10;88.10;;;;;;5006899;28;20477;-75
2021/05/11 06:04:35;;;;;;;30.77;28.27;;;14.10;88.00;;;;;;5009174;28;20460;-76
2021/05/11 06:07:01;;;;;;;30.77;28.27;;;14.20;87.80;;;;;;5001728;28;20563;-76
2021/05/11 06:09:30;;;;;;;29.73;27.47;;;14.20;87.80;;;;;;5003883;28;20539;-76
2021/05/11 06:11:59;;;;;;;31.40;28.90;;;14.30;87.40;;;;;;5003315;28;20485;-75
2021/05/11 06:14:41;;;;;;;34.50;31.67;;;14.30;87.40;;;;;;5005142;28;21095;-75
2021/05/11 06:17:14;;;;;;;33.87;30.40;;;14.50;86.80;;;;;;5002966;28;20469;-74
2021/05/11 06:19:41;;;;;;;33.90;31.03;;;14.60;85.90;;;;;;5003987;28;20969;-77
2021/05/11 06:22:08;;;;;;;31.10;28.43;;;14.60;85.80;;;;;;5003349;28;20488;-77
2021/05/11 06:24:35;;;;;;;33.20;30.40;;;14.60;85.80;;;;;;5004588;28;20470;-76
2021/05/11 06:27:03;;;;;;;33.07;30.67;;;14.50;85.90;;;;;;5004772;28;20461;-75
2021/05/11 06:29:31;;;;;;;33.70;30.63;;;14.50;85.80;;;;;;5009526;28;20491;-75
2021/05/11 06:31:57;;;;;;;37.10;33.50;;;14.60;85.80;;;;;;5003954;28;21016;-76
2021/05/11 06:34:24;;;;;;;49.17;33.37;;;14.70;85.70;;;;;;5010138;28;20898;-75
2021/05/11 06:36:50;;;;;;;35.57;32.30;;;14.90;85.10;;;;;;5006623;28;20461;-77
2021/05/11 06:39:17;;;;;;;40.00;35.27;;;14.80;85.30;;;;;;5004306;28;20467;-76
2021/05/11 06:41:46;;;;;;;34.03;31.53;;;14.90;85.10;;;;;;5003662;28;20497;-78
2021/05/11 06:44:18;;;;;;;36.63;33.50;;;14.90;85.20;;;;;;5004151;28;20457;-76
2021/05/11 06:49:39;;;;;;;40.20;37.30;;;14.90;84.80;;;;;;5008274;28;20549;-77
2021/05/11 06:54:53;;;;;;;32.67;30.10;;;14.60;85.90;;;;;;5006316;28;20484;-76
2021/05/11 06:57:21;;;;;;;35.80;32.53;;;14.80;86.00;;;;;;5005877;28;20462;-76
2021/05/11 06:59:48;;;;;;;38.43;35.63;;;15.00;85.10;;;;;;5006484;28;21033;-77
2021/05/11 07:02:15;;;;;;;31.57;29.30;;;15.00;85.10;;;;;;5008726;28;21118;-75
2021/05/11 07:04:43;;;;;;;33.43;30.70;;;15.10;84.30;;;;;;5010200;28;20556;-75
2021/05/11 07:07:11;;;;;;;33.27;30.77;;;15.10;84.30;;;;;;5004189;28;20464;-75
2021/05/11 07:09:50;;;;;;;37.03;33.90;;;15.30;83.80;;;;;;5006286;28;20461;-75
2021/05/11 07:15:04;;;;;;;43.90;33.57;;;15.20;83.90;;;;;;5003528;28;20500;-75
2021/05/11 07:17:30;;;;;;;49.87;34.47;;;15.20;84.00;;;;;;5006239;28;20463;-74
2021/05/11 07:19:57;;;;;;;39.73;36.10;;;15.40;83.30;;;;;;5005635;28;21055;-75
2021/05/11 07:22:25;;;;;;;48.73;35.30;;;15.50;82.70;;;;;;5011902;28;20477;-75
2021/05/11 07:24:54;;;;;;;33.00;30.50;;;15.50;82.60;;;;;;5007458;28;20457;-74
2021/05/11 07:27:45;;;;;;;33.57;31.20;;;15.40;82.50;;;;;;5008283;28;20460;-74
2021/05/11 07:30:15;;;;;;;37.93;35.47;;;15.30;82.90;;;;;;5005694;28;20497;-74
2021/05/11 07:32:42;;;;;;;32.77;30.10;;;15.40;82.60;;;;;;5008660;28;20571;-75
2021/05/11 07:35:09;;;;;;;32.47;30.07;;;15.50;82.40;;;;;;5007762;28;20476;-74
2021/05/11 07:37:36;;;;;;;35.73;33.10;;;15.50;82.20;;;;;;5006591;28;20969;-75
2021/05/11 07:40:03;;;;;;;33.40;30.60;;;15.40;83.00;;;;;;5005287;28;20492;-75
2021/05/11 07:42:31;;;;;;;32.60;30.43;;;15.40;82.80;;;;;;5006368;28;20480;-75
2021/05/11 07:45:02;;;;;;;31.83;29.60;;;15.40;83.40;;;;;;5007056;28;20865;-75
2021/05/11 07:47:36;;;;;;;31.90;29.70;;;15.50;83.00;;;;;;5010667;28;20595;-75
2021/05/11 08:04:09;;;;;;;32.40;30.30;;;15.80;80.60;;;;;;5010561;28;20544;-75
2021/05/11 08:14:54;;;;;;;29.67;27.83;;;15.80;81.10;;;;;;5004238;28;20479;-78
2021/05/11 08:17:21;;;;;;;32.50;30.17;;;15.90;80.20;;;;;;5003240;28;20462;-75
2021/05/11 08:20:07;;;;;;;32.60;30.53;;;16.10;79.00;;;;;;5004871;28;20456;-76
2021/05/11 08:27:59;;;;;;;31.93;29.33;;;15.80;80.40;;;;;;5005121;28;20451;-75
2021/05/11 08:30:27;;;;;;;30.10;28.20;;;15.90;80.70;;;;;;5004884;28;20456;-75
2021/05/11 08:32:54;;;;;;;30.57;28.53;;;16.20;79.10;;;;;;5005278;28;20457;-77
2021/05/11 08:35:22;;;;;;;30.10;28.20;;;16.30;79.10;;;;;;5003748;28;20477;-75
2021/05/11 08:37:48;;;;;;;31.00;27.97;;;16.30;78.30;;;;;;5004539;28;20469;-75
2021/05/11 08:40:16;;;;;;;29.47;27.67;;;16.20;78.70;;;;;;5009979;28;20463;-75
2021/05/11 08:42:43;;;;;;;30.60;28.60;;;16.00;79.40;;;;;;5009240;28;20512;-76
2021/05/11 08:45:12;;;;;;;29.83;28.00;;;16.10;78.90;;;;;;5004793;28;20477;-74
2021/05/11 08:47:49;;;;;;;31.83;29.40;;;16.30;78.80;;;;;;5005871;28;20539;-76
2021/05/11 08:50:17;;;;;;;29.67;27.77;;;16.30;78.00;;;;;;5007945;28;20563;-77
2021/05/11 08:52:56;;;;;;;35.10;31.07;;;16.40;78.50;;;;;;5003390;28;20539;-76
2021/05/11 09:00:02;;;;;;;29.77;27.70;;;16.60;77.50;;;;;;5007000;28;20481;-76
2021/05/11 09:09:47;;;;;;;27.97;26.27;;;17.00;75.10;;;;;;5005248;28;20880;-75
2021/05/11 09:15:41;;;;;;;28.83;26.97;;;17.10;74.80;;;;;;5004053;28;20528;-75
2021/05/11 09:23:58;;;;;;;28.07;26.47;;;17.00;75.50;;;;;;5008016;28;20542;-75
2021/05/11 09:26:42;;;;;;;29.03;27.20;;;17.30;74.40;;;;;;5002312;28;20511;-76
2021/05/11 09:29:26;;;;;;;28.40;26.20;;;17.50;73.60;;;;;;4999180;28;20906;-76
2021/05/11 09:32:00;;;;;;;27.80;26.20;;;17.60;73.70;;;;;;5005899;28;20483;-75
2021/05/11 09:34:34;;;;;;;28.60;26.80;;;17.70;73.30;;;;;;5005468;28;21234;-77
2021/05/11 09:54:35;;;;;;;29.57;27.80;;;18.00;71.80;;;;;;4925353;29;21195;-76
2021/05/11 09:57:14;;;;;;;30.43;28.50;;;18.10;71.30;;;;;;4993204;28;20457;-74
2021/05/11 10:48:27;;;;;;;36.33;33.70;;;19.20;68.30;;;;;;5006167;28;20475;-77
2021/05/11 10:50:55;;;;;;;38.20;35.40;;;19.30;68.30;;;;;;5012801;28;20483;-76
2021/05/11 10:53:51;;;;;;;38.80;35.97;;;19.20;68.40;;;;;;5010629;28;20469;-76
2021/05/11 10:56:48;;;;;;;37.03;34.40;;;19.10;68.70;;;;;;5007247;28;20508;-76
2021/05/11 10:59:25;;;;;;;38.30;35.50;;;19.00;68.70;;;;;;4949512;28;20482;-77
2021/05/11 11:01:56;;;;;;;36.43;33.83;;;18.90;69.40;;;;;;5000277;28;20485;-76
2021/05/11 11:04:26;;;;;;;39.43;36.13;;;18.80;69.30;;;;;;5007045;28;20461;-75
2021/05/11 11:07:07;;;;;;;40.43;37.17;;;18.90;69.40;;;;;;5009839;28;20575;-76
2021/05/11 11:09:35;;;;;;;36.90;34.30;;;18.90;69.30;;;;;;5010727;28;20461;-75
2021/05/11 11:12:03;;;;;;;36.23;33.70;;;18.70;70.00;;;;;;5011391;28;20571;-75
2021/05/11 11:14:37;;;;;;;36.97;34.27;;;19.00;69.50;;;;;;5013316;28;20560;-75
2021/05/11 11:17:06;;;;;;;37.73;34.93;;;19.40;68.30;;;;;;5009677;28;20464;-75
2021/05/11 11:19:33;;;;;;;38.23;35.40;;;19.70;67.60;;;;;;5011739;28;20963;-75
2021/05/11 11:24:47;;;;;;;35.70;33.43;;;19.90;66.40;;;;;;5006445;28;20453;-74
2021/05/11 11:27:14;;;;;;;35.60;33.10;;;19.80;66.60;;;;;;5007143;28;21029;-75
2021/05/11 11:29:43;;;;;;;35.67;33.27;;;20.00;66.70;;;;;;5008720;28;20495;-74
2021/05/11 11:32:10;;;;;;;34.93;32.83;;;20.20;65.70;;;;;;5000040;28;20555;-74
2021/05/11 11:34:39;;;;;;;35.90;33.60;;;20.00;66.10;;;;;;5005436;28;20508;-75
2021/05/11 11:37:08;;;;;;;35.30;33.10;;;20.10;66.20;;;;;;5005115;28;20472;-75
2021/05/11 11:39:36;;;;;;;35.67;33.37;;;20.10;65.80;;;;;;5008276;28;20990;-74
2021/05/11 11:42:05;;;;;;;33.87;31.73;;;20.20;65.50;;;;;;5008201;28;20579;-75
2021/05/11 11:44:35;;;;;;;75.43;36.83;;;20.60;65.00;;;;;;5009151;28;20461;-74
2021/05/11 11:47:03;;;;;;;34.00;31.83;;;20.50;64.50;;;;;;5009780;28;20461;-75
2021/05/11 11:49:31;;;;;;;33.97;31.77;;;20.60;64.40;;;;;;5008599;28;20838;-75
2021/05/11 11:52:03;;;;;;;33.53;30.90;;;20.60;63.90;;;;;;5013011;28;20512;-76
2021/05/11 11:54:34;;;;;;;38.10;33.23;;;20.60;64.10;;;;;;5006915;28;20465;-75
2021/05/11 11:59:55;;;;;;;32.37;30.17;;;20.60;65.00;;;;;;5006479;28;20586;-74
2021/05/11 12:02:22;;;;;;;34.43;31.83;;;20.70;63.90;;;;;;5006728;28;20543;-75
2021/05/11 12:04:48;;;;;;;109.63;39.33;;;20.60;64.50;;;;;;5002068;28;20520;-75
2021/05/11 12:07:17;;;;;;;33.47;30.37;;;20.50;64.90;;;;;;5006733;28;20551;-74
2021/05/11 12:09:47;;;;;;;31.53;29.73;;;20.60;64.70;;;;;;5006239;28;20967;-75
2021/05/11 12:12:16;;;;;;;30.40;28.70;;;20.60;64.80;;;;;;5004813;28;20539;-74
2021/05/11 12:14:42;;;;;;;29.30;27.70;;;20.50;64.80;;;;;;5011772;28;20456;-74
2021/05/11 12:17:09;;;;;;;31.90;29.77;;;20.30;65.20;;;;;;5007287;28;20448;-74
2021/05/11 12:19:42;;;;;;;28.80;27.20;;;20.10;65.50;;;;;;5006675;28;20952;-74
2021/05/11 12:22:09;;;;;;;31.03;28.20;;;19.80;66.90;;;;;;5006162;28;21110;-76
2021/05/11 12:24:37;;;;;;;29.30;27.53;;;19.70;67.80;;;;;;5005974;28;20511;-79
2021/05/11 12:27:15;;;;;;;29.53;27.57;;;19.50;68.00;;;;;;5007542;28;20487;-75
2021/05/11 12:29:59;;;;;;;28.53;26.63;;;19.30;68.50;;;;;;5008187;28;20460;-75
2021/05/11 12:32:26;;;;;;;27.90;26.30;;;19.40;68.40;;;;;;5001216;28;20576;-75
2021/05/11 12:35:11;;;;;;;30.23;27.33;;;19.60;67.70;;;;;;5000372;28;20480;-74
2021/05/11 12:37:48;;;;;;;29.13;27.20;;;19.90;67.50;;;;;;5005748;28;20484;-75
2021/05/11 12:40:27;;;;;;;29.13;27.33;;;19.90;66.90;;;;;;5007924;28;20569;-74
2021/05/11 12:42:56;;;;;;;28.53;26.93;;;19.80;66.90;;;;;;5006538;28;20553;-76
2021/05/11 12:45:23;;;;;;;28.40;26.90;;;19.60;67.50;;;;;;5004820;28;20465;-75
2021/05/11 12:47:52;;;;;;;30.70;29.00;;;19.50;68.00;;;;;;5009069;28;20464;-76
2021/05/11 12:50:22;;;;;;;29.70;28.10;;;19.40;68.70;;;;;;5000537;28;20500;-75
2021/05/11 12:52:51;;;;;;;29.77;27.97;;;19.10;70.10;;;;;;5005182;28;20776;-75
2021/05/11 12:55:41;;;;;;;29.60;27.50;;;18.90;70.90;;;;;;5010001;28;20496;-76
2021/05/11 12:58:24;;;;;;;28.80;27.00;;;19.00;70.90;;;;;;5006642;28;20979;-76
2021/05/11 13:01:00;;;;;;;30.73;27.83;;;19.10;70.80;;;;;;5002793;28;20485;-76
2021/05/11 13:03:47;;;;;;;29.67;27.87;;;19.20;70.30;;;;;;5005182;28;20472;-75
2021/05/11 13:14:56;;;;;;;27.87;26.27;;;19.00;70.80;;;;;;5008130;28;20476;-79
2021/05/11 13:17:39;;;;;;;27.67;26.17;;;18.60;71.10;;;;;;5003832;28;20453;-76
2021/05/11 13:20:24;;;;;;;27.90;26.30;;;18.10;73.10;;;;;;5006278;28;20522;-77
2021/05/11 13:23:04;;;;;;;32.20;30.10;;;17.60;74.50;;;;;;5007580;28;20459;-76
2021/05/11 13:25:34;;;;;;;28.73;27.00;;;17.20;75.60;;;;;;5006663;28;20452;-75
2021/05/11 13:28:08;;;;;;;27.23;25.63;;;16.90;76.90;;;;;;5008187;28;20606;-75
2021/05/11 13:30:41;;;;;;;27.63;26.03;;;16.80;77.60;;;;;;5004297;28;20543;-76
2021/05/11 13:33:22;;;;;;;28.17;26.47;;;16.90;77.50;;;;;;5008801;28;20464;-77
2021/05/11 13:35:48;;;;;;;31.10;28.50;;;17.00;77.30;;;;;;5009236;28;20928;-75
2021/05/11 13:38:15;;;;;;;29.13;27.53;;;16.90;77.40;;;;;;5006729;28;21369;-78
2021/05/11 13:40:41;;;;;;;28.40;26.80;;;16.90;77.10;;;;;;5011358;28;20950;-76
2021/05/11 13:43:08;;;;;;;31.70;29.90;;;16.90;77.50;;;;;;5007232;28;20974;-75
2021/05/11 13:45:35;;;;;;;32.20;30.27;;;16.80;77.20;;;;;;5007852;28;20468;-75
2021/05/11 13:48:03;;;;;;;30.33;28.63;;;16.60;77.40;;;;;;5007460;28;20465;-76
2021/05/11 13:50:48;;;;;;;31.00;29.07;;;16.40;78.20;;;;;;5011001;28;20451;-77
2021/05/11 13:53:20;;;;;;;32.27;30.27;;;16.20;79.10;;;;;;5003700;28;20475;-76
2021/05/11 13:55:56;;;;;;;28.90;27.07;;;16.20;79.70;;;;;;5001124;28;20537;-76
2021/05/11 14:01:49;;;;;;;29.50;27.70;;;16.00;80.60;;;;;;5013913;28;20557;-75
2021/05/11 14:04:15;;;;;;;29.90;28.10;;;15.90;81.10;;;;;;5004346;28;20673;-75
2021/05/11 14:06:42;;;;;;;28.63;26.90;;;15.90;81.30;;;;;;5015242;28;20469;-75
2021/05/11 14:09:09;;;;;;;28.70;26.63;;;16.00;81.00;;;;;;5015364;28;20460;-75
2021/05/11 14:11:36;;;;;;;28.13;26.43;;;16.00;80.30;;;;;;5008965;28;20485;-75
2021/05/11 14:14:07;;;;;;;28.60;26.77;;;15.90;80.60;;;;;;5011615;28;20453;-74
2021/05/11 14:16:38;;;;;;;28.57;26.60;;;15.90;80.90;;;;;;5009068;28;21101;-76
2021/05/11 14:19:05;;;;;;;28.90;27.10;;;16.00;80.90;;;;;;5011573;28;20452;-75
2021/05/11 14:21:33;;;;;;;26.93;25.23;;;16.10;79.80;;;;;;5006938;28;20836;-75
2021/05/11 14:24:01;;;;;;;26.47;24.87;;;16.00;79.80;;;;;;5008817;28;20463;-75
2021/05/11 14:26:29;;;;;;;28.40;26.70;;;16.00;80.20;;;;;;5006952;28;20481;-75
2021/05/11 14:28:56;;;;;;;26.20;24.70;;;15.90;81.40;;;;;;5010291;28;20468;-75
2021/05/11 14:31:25;;;;;;;26.57;24.63;;;15.80;81.60;;;;;;5009943;28;20542;-75
2021/05/11 14:33:51;;;;;;;29.50;27.80;;;15.70;82.40;;;;;;5010100;28;20531;-75
2021/05/11 14:36:18;;;;;;;24.87;23.47;;;15.90;82.60;;;;;;5016777;28;20575;-75
2021/05/11 14:38:47;;;;;;;25.67;23.80;;;15.70;82.30;;;;;;5015035;28;20456;-75
2021/05/11 14:41:14;;;;;;;25.20;23.70;;;15.80;82.90;;;;;;5012891;28;20520;-75
2021/05/11 14:43:42;;;;;;;28.43;26.63;;;15.70;82.90;;;;;;5013136;28;20457;-76
2021/05/11 14:46:10;;;;;;;28.30;26.70;;;15.60;83.50;;;;;;5010118;28;20457;-76
2021/05/11 14:48:39;;;;;;;25.13;23.67;;;15.60;83.40;;;;;;5009175;28;21121;-75
2021/05/11 14:51:06;;;;;;;23.73;22.37;;;15.70;83.80;;;;;;5004949;28;20510;-75
2021/05/11 14:53:33;;;;;;;23.37;21.97;;;15.60;83.60;;;;;;4995401;28;20465;-75
2021/05/11 14:56:01;;;;;;;23.47;22.17;;;15.60;83.50;;;;;;5006077;28;20519;-75
2021/05/11 14:58:27;;;;;;;22.37;21.17;;;15.40;84.50;;;;;;5005241;28;20460;-75
2021/05/11 15:00:54;;;;;;;22.93;21.63;;;15.40;84.20;;;;;;5005690;28;20477;-76
2021/05/11 15:03:21;;;;;;;25.27;23.60;;;15.20;84.90;;;;;;5007721;28;21043;-75
2021/05/11 15:05:48;;;;;;;23.23;21.90;;;15.30;85.30;;;;;;5010344;28;20562;-75
2021/05/11 15:08:14;;;;;;;23.23;21.87;;;15.40;85.30;;;;;;5017191;28;21188;-75
2021/05/11 15:10:43;;;;;;;25.73;24.13;;;15.40;85.50;;;;;;5009992;28;20464;-78
2021/05/11 15:13:10;;;;;;;23.00;21.70;;;15.40;84.60;;;;;;5007130;28;20931;-76
2021/05/11 15:15:39;;;;;;;23.30;22.03;;;15.40;85.10;;;;;;5006925;28;20528;-77
2021/05/11 15:18:06;;;;;;;22.30;20.90;;;15.50;84.60;;;;;;5007274;28;20473;-76
2021/05/11 15:20:34;;;;;;;21.70;20.40;;;15.50;84.40;;;;;;5012427;28;20982;-77
2021/05/11 15:23:03;;;;;;;24.30;23.00;;;15.50;85.20;;;;;;5005498;28;22243;-78
2021/05/11 15:25:30;;;;;;;21.83;20.63;;;15.40;85.30;;;;;;5008909;28;20449;-76
2021/05/11 15:27:57;;;;;;;22.60;21.30;;;15.40;85.60;;;;;;5008664;28;20453;-76
2021/05/11 15:30:26;;;;;;;20.97;19.87;;;15.50;85.70;;;;;;5006244;28;20457;-76
2021/05/11 15:32:55;;;;;;;22.60;21.40;;;15.60;85.10;;;;;;5005615;28;20460;-77
2021/05/11 15:35:23;;;;;;;23.30;21.90;;;15.60;85.10;;;;;;5017274;28;21017;-77
2021/05/11 15:37:53;;;;;;;22.73;21.43;;;15.70;85.00;;;;;;5014082;28;20619;-76
2021/05/11 15:40:22;;;;;;;21.23;19.77;;;15.70;85.20;;;;;;5009426;28;20475;-76